TAF Text Data
IDs:
Format:
Raw Decoded Include METAR

Data at: 1103 UTC 22 Jan 2022

METAR for:KTOB (Dodge Center Arpt, MN, US)
Text:KTOB 221055Z AUTO 28016G22KT 10SM M07/M11 A3008 RMK AO2
Temperature: -7.0°C ( 19°F)
Dewpoint:-11.0°C ( 12°F) [RH = 73%]
Pressure (altimeter):30.08 inches Hg (1018.7 mb)
Winds:from the W (280 degrees) at 18 MPH (16 knots; 8.2 m/s) gusting to 25 MPH (22 knots; 11.3 m/s)
Visibility:10 or more sm (16+ km)
QC Flag:automated observation with no human augmentation

TAF for:KTOB (Dodge Center Arpt, MN, US)
Text:No data found